Time;durP1;ratioP1;P1;durP2;ratioP2;P2;SDS_P1;SDS_P2;PMS_P1;PMS_P2;Temp;Humidity;BMP_temperature;BMP_pressure;BME280_temperature;BME280_humidity;BME280_pressure;Samples;Min_cycle;Max_cycle;Signal;HPM_P1;HPM_P2
2023/08/24 00:00:37;;;;;;;11.65;7.78;;;14.60;99.90;;;;;;5053057;28;20076;-77
2023/08/24 00:03:03;;;;;;;12.25;7.97;;;14.60;99.90;;;;;;5054079;28;20045;-77
2023/08/24 00:05:29;;;;;;;11.88;8.60;;;14.70;99.90;;;;;;5036551;28;20041;-77
2023/08/24 00:07:55;;;;;;;15.77;8.15;;;14.80;99.90;;;;;;5052720;28;20511;-77
2023/08/24 00:10:20;;;;;;;11.55;8.50;;;14.80;99.90;;;;;;5054091;28;20049;-76
2023/08/24 00:12:46;;;;;;;13.63;8.73;;;14.70;99.90;;;;;;5054008;28;20045;-77
2023/08/24 00:15:12;;;;;;;13.45;9.35;;;14.70;99.90;;;;;;5035150;28;20103;-77
2023/08/24 00:17:38;;;;;;;12.27;9.23;;;14.70;99.90;;;;;;5035933;28;20044;-76
2023/08/24 00:20:10;;;;;;;11.55;9.13;;;14.70;99.90;;;;;;5053307;28;20044;-77
2023/08/24 00:22:36;;;;;;;13.18;9.57;;;14.70;99.90;;;;;;5036205;28;20045;-77
2023/08/24 00:25:02;;;;;;;13.48;9.55;;;14.80;99.90;;;;;;5035410;28;20107;-76
2023/08/24 00:27:28;;;;;;;14.52;9.40;;;14.80;99.90;;;;;;5053204;28;20796;-77
2023/08/24 00:29:53;;;;;;;11.63;9.13;;;14.90;99.90;;;;;;5035475;28;20067;-76
2023/08/24 00:32:19;;;;;;;11.55;8.80;;;14.80;99.90;;;;;;5035896;28;20045;-76
2023/08/24 00:34:45;;;;;;;13.45;9.38;;;14.80;99.90;;;;;;5035334;28;20084;-77
2023/08/24 00:37:11;;;;;;;13.55;8.98;;;14.80;99.90;;;;;;5035686;28;20056;-76
2023/08/24 00:39:40;;;;;;;13.50;9.35;;;14.90;99.90;;;;;;5053487;28;20044;-76
2023/08/24 00:42:06;;;;;;;15.02;9.88;;;14.80;99.90;;;;;;5034692;28;20098;-76
2023/08/24 00:44:32;;;;;;;14.25;9.43;;;14.90;99.90;;;;;;5053088;28;20041;-76
2023/08/24 00:47:07;;;;;;;13.13;9.30;;;14.90;99.90;;;;;;5052891;28;20040;-76
2023/08/24 00:49:34;;;;;;;15.57;9.60;;;15.00;99.90;;;;;;5034875;28;20132;-77
2023/08/24 00:52:00;;;;;;;12.43;9.25;;;15.00;99.90;;;;;;5053085;28;20049;-77
2023/08/24 00:54:26;;;;;;;12.73;8.85;;;15.00;99.90;;;;;;5035640;28;20041;-77
2023/08/24 00:56:53;;;;;;;13.07;9.32;;;15.00;99.90;;;;;;5051538;28;20503;-76
2023/08/24 00:59:19;;;;;;;15.85;8.45;;;15.00;99.90;;;;;;5052206;28;20056;-77
2023/08/24 01:01:46;;;;;;;13.45;8.95;;;15.00;99.90;;;;;;5053387;28;20453;-76
2023/08/24 01:04:13;;;;;;;10.52;8.45;;;15.10;99.90;;;;;;5051913;28;20049;-76
2023/08/24 01:06:38;;;;;;;12.70;9.52;;;15.10;99.90;;;;;;5052534;28;20037;-77
2023/08/24 01:09:06;;;;;;;15.75;9.35;;;15.10;99.90;;;;;;5052753;28;20102;-77
2023/08/24 01:12:13;;;;;;;15.45;9.82;;;15.10;99.90;;;;;;5051648;28;20536;-76
2023/08/24 01:14:51;;;;;;;13.15;9.32;;;15.20;99.90;;;;;;5030179;28;20140;-76
2023/08/24 01:17:22;;;;;;;12.82;9.10;;;15.20;99.90;;;;;;5034684;28;20052;-76
2023/08/24 01:19:48;;;;;;;13.77;8.02;;;15.20;99.90;;;;;;5034638;28;20045;-76
2023/08/24 01:22:26;;;;;;;12.65;8.75;;;15.20;99.90;;;;;;5034581;28;20048;-76
2023/08/24 01:25:10;;;;;;;13.85;9.35;;;15.20;99.90;;;;;;5051901;28;20081;-76
2023/08/24 01:27:37;;;;;;;12.18;8.10;;;15.20;99.90;;;;;;5052585;28;20106;-76
2023/08/24 01:30:05;;;;;;;11.18;7.97;;;15.20;99.90;;;;;;5052393;28;20116;-76
2023/08/24 01:32:34;;;;;;;15.38;8.60;;;15.20;99.90;;;;;;5051770;28;20154;-76
2023/08/24 01:35:05;;;;;;;14.52;8.95;;;15.20;99.90;;;;;;5034123;28;20047;-76
2023/08/24 01:37:32;;;;;;;12.73;8.05;;;15.20;99.90;;;;;;5051980;28;20056;-76
2023/08/24 01:40:12;;;;;;;10.05;7.40;;;15.30;99.90;;;;;;5052096;28;20392;-76
2023/08/24 01:42:48;;;;;;;11.55;8.15;;;15.30;99.90;;;;;;5035039;28;20049;-76
2023/08/24 01:45:18;;;;;;;10.52;7.53;;;15.30;99.90;;;;;;5033724;28;20128;-76
2023/08/24 01:47:45;;;;;;;12.73;8.05;;;15.30;99.90;;;;;;5034631;28;20511;-76
2023/08/24 01:50:11;;;;;;;14.68;7.72;;;15.30;99.90;;;;;;5034326;28;20558;-76
2023/08/24 01:52:37;;;;;;;11.25;7.55;;;15.30;99.90;;;;;;5051817;28;20530;-76
2023/08/24 01:55:03;;;;;;;11.25;8.02;;;15.30;99.90;;;;;;5052076;28;20120;-76
2023/08/24 01:57:29;;;;;;;11.25;7.70;;;15.30;99.90;;;;;;5034677;28;20473;-76
2023/08/24 01:59:54;;;;;;;10.85;7.40;;;15.30;99.90;;;;;;5051542;28;20119;-76
2023/08/24 02:02:21;;;;;;;10.23;7.57;;;15.30;99.90;;;;;;5033967;28;20135;-76
2023/08/24 02:04:47;;;;;;;13.70;7.35;;;15.30;99.90;;;;;;5034275;28;20136;-76
2023/08/24 02:07:13;;;;;;;13.13;7.13;;;15.30;99.90;;;;;;5033863;28;20132;-76
2023/08/24 02:09:39;;;;;;;14.27;7.85;;;15.40;99.90;;;;;;5052083;28;20127;-76
2023/08/24 02:12:05;;;;;;;10.75;7.90;;;15.40;99.90;;;;;;5033527;28;20164;-76
2023/08/24 02:14:37;;;;;;;11.65;7.65;;;15.40;99.90;;;;;;5033759;28;20068;-76
2023/08/24 02:17:03;;;;;;;10.35;7.82;;;15.40;99.90;;;;;;5034002;28;20053;-76
2023/08/24 02:19:28;;;;;;;11.73;7.47;;;15.50;99.90;;;;;;5052250;28;20084;-76
2023/08/24 02:21:57;;;;;;;13.60;8.20;;;15.50;99.90;;;;;;5050728;28;20074;-76
2023/08/24 02:24:22;;;;;;;11.70;7.47;;;15.40;99.90;;;;;;5052216;28;20041;-76
2023/08/24 02:26:48;;;;;;;11.85;7.45;;;15.40;99.90;;;;;;5032976;28;20374;-76
2023/08/24 02:29:14;;;;;;;12.20;7.30;;;15.50;99.90;;;;;;5034273;28;20045;-76
2023/08/24 02:31:40;;;;;;;11.70;7.45;;;15.40;99.90;;;;;;5051763;28;20040;-76
2023/08/24 02:34:06;;;;;;;11.15;7.47;;;15.40;99.90;;;;;;5051061;28;20045;-76
2023/08/24 02:36:33;;;;;;;12.02;7.20;;;15.40;99.90;;;;;;5034441;28;20045;-76
2023/08/24 02:38:59;;;;;;;10.73;7.55;;;15.40;99.90;;;;;;5054382;28;20114;-76
2023/08/24 02:41:26;;;;;;;11.63;7.13;;;15.40;99.90;;;;;;5036760;28;20099;-76
2023/08/24 02:43:51;;;;;;;11.38;7.35;;;15.40;99.90;;;;;;5055639;28;20098;-76
2023/08/24 02:46:18;;;;;;;12.65;7.65;;;15.40;99.90;;;;;;5056078;28;20045;-76
2023/08/24 02:48:44;;;;;;;12.90;7.25;;;15.30;99.90;;;;;;5054970;28;20072;-76
2023/08/24 02:51:13;;;;;;;11.63;7.55;;;15.30;99.90;;;;;;5055203;28;20060;-76
2023/08/24 02:53:38;;;;;;;10.77;7.18;;;15.30;99.90;;;;;;5037805;28;20495;-76
2023/08/24 02:56:05;;;;;;;10.18;6.85;;;15.20;99.90;;;;;;5033371;28;20188;-76
2023/08/24 02:58:31;;;;;;;9.43;7.03;;;15.20;99.90;;;;;;5054928;28;20116;-76
2023/08/24 03:00:57;;;;;;;11.65;7.65;;;15.10;99.90;;;;;;5036822;28;20404;-76
2023/08/24 03:03:24;;;;;;;12.52;8.02;;;15.10;99.90;;;;;;5054700;28;20045;-76
2023/08/24 03:06:08;;;;;;;10.80;7.82;;;15.10;99.90;;;;;;5037086;28;20048;-76
2023/08/24 03:08:35;;;;;;;11.07;6.90;;;15.10;99.90;;;;;;5037142;28;20129;-76
2023/08/24 03:11:01;;;;;;;10.57;7.82;;;15.10;99.90;;;;;;5054096;28;20501;-76
2023/08/24 03:13:28;;;;;;;11.02;7.15;;;15.10;99.90;;;;;;5037522;28;20048;-76
2023/08/24 03:15:54;;;;;;;11.30;6.97;;;15.10;99.90;;;;;;5036969;28;20522;-76
2023/08/24 03:18:20;;;;;;;12.02;7.63;;;15.10;99.90;;;;;;5036398;28;20060;-76
2023/08/24 03:20:47;;;;;;;13.93;8.70;;;15.10;99.90;;;;;;5037230;28;20072;-77
2023/08/24 03:23:13;;;;;;;12.05;8.20;;;15.10;99.90;;;;;;5035940;28;20098;-77
2023/08/24 03:25:40;;;;;;;11.45;7.82;;;15.20;99.90;;;;;;5037164;28;20438;-76
2023/08/24 03:28:07;;;;;;;11.57;7.82;;;15.20;99.90;;;;;;5054605;28;20076;-76
2023/08/24 03:30:37;;;;;;;13.38;8.05;;;15.20;99.90;;;;;;5054308;28;20052;-76
2023/08/24 03:33:04;;;;;;;10.40;7.80;;;15.30;99.90;;;;;;5054498;28;20049;-76
2023/08/24 03:35:31;;;;;;;12.52;8.10;;;15.30;99.90;;;;;;5036883;28;20087;-76
2023/08/24 03:37:57;;;;;;;11.40;7.53;;;15.30;99.90;;;;;;5035187;28;20140;-76
2023/08/24 03:40:23;;;;;;;13.90;8.57;;;15.40;99.90;;;;;;5054558;28;20112;-76
2023/08/24 03:42:48;;;;;;;10.48;7.70;;;15.40;99.90;;;;;;5054497;28;20099;-76
2023/08/24 03:45:14;;;;;;;15.27;9.40;;;15.30;99.90;;;;;;5035766;28;20049;-76
2023/08/24 03:47:40;;;;;;;13.55;9.40;;;15.40;99.90;;;;;;5053958;28;20099;-76
2023/08/24 03:50:06;;;;;;;14.80;8.82;;;15.40;99.90;;;;;;5053109;28;20048;-76
2023/08/24 03:52:32;;;;;;;13.10;8.98;;;15.40;99.90;;;;;;5053803;28;20059;-76
2023/08/24 03:54:58;;;;;;;17.10;9.07;;;15.40;99.90;;;;;;5036416;28;20040;-76
2023/08/24 03:57:23;;;;;;;15.30;9.35;;;15.40;99.90;;;;;;5036028;28;20049;-77
2023/08/24 03:59:49;;;;;;;16.95;8.45;;;15.40;99.90;;;;;;5053175;28;20049;-76
2023/08/24 04:02:17;;;;;;;14.45;8.55;;;15.40;99.90;;;;;;5036284;28;20041;-77
2023/08/24 04:04:43;;;;;;;14.77;9.15;;;15.40;99.90;;;;;;5054014;28;20128;-77
2023/08/24 04:07:09;;;;;;;13.55;8.85;;;15.40;99.90;;;;;;5035227;28;20183;-77
2023/08/24 04:09:34;;;;;;;13.02;9.25;;;15.40;99.90;;;;;;5053311;28;20083;-77
2023/08/24 04:12:00;;;;;;;13.25;8.88;;;15.40;99.90;;;;;;5036162;28;20125;-77
2023/08/24 04:14:26;;;;;;;13.85;9.40;;;15.40;99.90;;;;;;5053382;28;20228;-77
2023/08/24 04:16:52;;;;;;;14.93;9.23;;;15.30;99.90;;;;;;5048039;28;20052;-77
2023/08/24 04:19:21;;;;;;;11.85;8.13;;;15.30;99.90;;;;;;5023407;28;20077;-77
2023/08/24 04:21:46;;;;;;;14.30;8.52;;;15.30;99.90;;;;;;5043024;28;20049;-76
2023/08/24 04:24:12;;;;;;;10.25;7.78;;;15.20;99.90;;;;;;5044763;28;20045;-74
2023/08/24 04:26:37;;;;;;;14.80;9.18;;;15.20;99.90;;;;;;5037528;28;20060;-75
2023/08/24 04:29:03;;;;;;;11.55;8.13;;;15.10;99.90;;;;;;5028776;28;20077;-76
2023/08/24 04:31:29;;;;;;;13.55;8.57;;;15.10;99.90;;;;;;5052690;28;20461;-75
2023/08/24 04:33:54;;;;;;;12.48;8.38;;;15.00;99.90;;;;;;5032633;28;20481;-75
2023/08/24 04:36:23;;;;;;;12.57;7.50;;;15.00;99.90;;;;;;5035966;28;20488;-75
2023/08/24 04:38:48;;;;;;;12.65;8.32;;;15.00;99.90;;;;;;5052749;28;20037;-76
2023/08/24 04:41:14;;;;;;;14.85;8.35;;;15.00;99.90;;;;;;5035083;28;20056;-76
2023/08/24 04:43:40;;;;;;;15.05;8.00;;;15.00;99.90;;;;;;5053785;28;20049;-76
2023/08/24 04:46:05;;;;;;;13.77;8.82;;;15.00;99.90;;;;;;5053019;28;20052;-74
2023/08/24 04:48:34;;;;;;;12.57;7.60;;;14.90;99.90;;;;;;5034116;28;20051;-73
2023/08/24 04:51:01;;;;;;;13.88;8.48;;;15.00;99.90;;;;;;5035254;28;20044;-73
2023/08/24 04:53:27;;;;;;;13.15;8.27;;;14.90;99.90;;;;;;5053460;28;20045;-74
2023/08/24 04:55:53;;;;;;;12.73;8.10;;;14.90;99.90;;;;;;5034370;28;20095;-74
2023/08/24 04:58:23;;;;;;;11.80;8.15;;;14.90;99.90;;;;;;5052772;28;20481;-74
2023/08/24 05:00:49;;;;;;;12.32;8.32;;;14.90;99.90;;;;;;5033860;28;20454;-74
2023/08/24 05:03:14;;;;;;;13.07;8.10;;;14.90;99.90;;;;;;5052336;28;20037;-74
2023/08/24 05:05:43;;;;;;;13.98;8.25;;;15.00;99.90;;;;;;5053391;28;20417;-74
2023/08/24 05:08:12;;;;;;;12.65;8.50;;;15.00;99.90;;;;;;5034528;28;20132;-74
2023/08/24 05:10:38;;;;;;;11.70;8.23;;;15.00;99.90;;;;;;5052654;28;20128;-74
2023/08/24 05:13:04;;;;;;;14.85;8.43;;;15.00;99.90;;;;;;5050299;28;20114;-74
2023/08/24 05:15:30;;;;;;;11.73;8.43;;;15.00;99.90;;;;;;5022502;28;20120;-74
2023/08/24 05:17:59;;;;;;;14.45;8.15;;;15.00;99.90;;;;;;5026900;28;20464;-74
2023/08/24 05:20:28;;;;;;;11.55;7.40;;;15.00;99.90;;;;;;5046289;28;20032;-74
2023/08/24 05:22:57;;;;;;;14.88;8.05;;;15.00;99.90;;;;;;5022935;28;20048;-74
2023/08/24 05:25:23;;;;;;;11.85;7.95;;;15.00;99.90;;;;;;5024246;28;20148;-74
2023/08/24 05:27:49;;;;;;;15.55;8.13;;;15.00;99.90;;;;;;5028945;28;20511;-74
2023/08/24 05:30:14;;;;;;;12.07;7.68;;;15.00;99.90;;;;;;5027447;28;20116;-74
2023/08/24 05:32:40;;;;;;;15.48;8.27;;;15.00;99.90;;;;;;5022879;28;20099;-75
2023/08/24 05:35:07;;;;;;;11.60;7.40;;;15.00;99.90;;;;;;5016479;28;20556;-74
2023/08/24 05:37:33;;;;;;;12.77;7.60;;;15.00;99.90;;;;;;5043611;28;20052;-75
2023/08/24 05:40:02;;;;;;;11.65;7.60;;;15.10;99.90;;;;;;5052183;28;20079;-74
2023/08/24 05:42:29;;;;;;;11.00;7.03;;;15.00;99.90;;;;;;5052202;28;20089;-74
2023/08/24 05:44:54;;;;;;;11.77;7.25;;;15.10;99.90;;;;;;5050692;28;20045;-75
2023/08/24 05:47:20;;;;;;;10.18;7.50;;;15.10;99.90;;;;;;5052402;28;20059;-74
2023/08/24 05:49:46;;;;;;;11.10;7.72;;;15.10;99.90;;;;;;5034133;28;20041;-74
2023/08/24 05:52:11;;;;;;;16.40;8.07;;;15.20;99.90;;;;;;5033664;28;20397;-74
2023/08/24 05:54:38;;;;;;;12.23;7.88;;;15.20;99.90;;;;;;5052009;28;20458;-74
2023/08/24 05:57:04;;;;;;;9.23;7.25;;;15.30;99.90;;;;;;5033073;28;20056;-75
2023/08/24 05:59:30;;;;;;;12.30;7.13;;;15.40;99.90;;;;;;5033194;28;20098;-75
2023/08/24 06:01:56;;;;;;;12.75;7.32;;;15.50;99.90;;;;;;5034818;28;20080;-74
2023/08/24 06:04:21;;;;;;;11.88;7.30;;;15.60;99.90;;;;;;5034769;28;20077;-74
2023/08/24 06:06:47;;;;;;;10.18;6.65;;;15.70;99.90;;;;;;5033201;28;20091;-75
2023/08/24 06:09:14;;;;;;;11.27;7.13;;;15.70;99.90;;;;;;5034043;28;20491;-76
2023/08/24 06:11:40;;;;;;;12.30;6.47;;;15.80;99.90;;;;;;5035066;28;20366;-79
2023/08/24 06:14:06;;;;;;;12.30;7.13;;;15.80;99.90;;;;;;5054331;28;20808;-77
2023/08/24 06:16:32;;;;;;;12.25;7.03;;;15.80;99.90;;;;;;5038306;28;20048;-74
2023/08/24 06:18:58;;;;;;;14.88;6.50;;;15.90;99.90;;;;;;5037161;28;20049;-77
2023/08/24 06:21:24;;;;;;;10.75;6.72;;;16.00;99.90;;;;;;5056215;28;20124;-78
2023/08/24 06:23:49;;;;;;;14.60;6.75;;;16.00;99.90;;;;;;5055521;28;20052;-73
2023/08/24 06:26:15;;;;;;;11.27;7.00;;;16.10;99.90;;;;;;5054983;28;20037;-75
2023/08/24 06:28:41;;;;;;;14.90;7.47;;;16.20;99.90;;;;;;5037947;28;20488;-76
2023/08/24 06:31:09;;;;;;;11.93;6.35;;;16.30;99.90;;;;;;5055687;28;20044;-74
2023/08/24 06:33:36;;;;;;;9.18;5.60;;;16.40;99.90;;;;;;5054713;28;20438;-74
2023/08/24 06:36:05;;;;;;;10.20;5.32;;;16.50;99.90;;;;;;5055325;28;20052;-74
2023/08/24 06:38:30;;;;;;;10.57;5.70;;;16.50;99.90;;;;;;5055794;28;20045;-74
2023/08/24 06:40:58;;;;;;;8.30;5.20;;;16.60;99.90;;;;;;5054808;28;20048;-73
2023/08/24 06:43:24;;;;;;;12.13;5.95;;;16.80;99.90;;;;;;5055517;28;20123;-74
2023/08/24 06:45:54;;;;;;;12.60;6.25;;;16.90;99.90;;;;;;5055338;28;20137;-73
2023/08/24 06:48:23;;;;;;;8.20;5.50;;;16.90;99.90;;;;;;5055236;28;20048;-73
2023/08/24 06:50:49;;;;;;;10.00;6.00;;;17.00;99.90;;;;;;5037105;28;20472;-72
2023/08/24 06:53:15;;;;;;;8.35;5.70;;;17.10;99.90;;;;;;5055306;28;20052;-74
2023/08/24 06:55:40;;;;;;;9.70;6.05;;;17.20;99.90;;;;;;5054921;28;20120;-75
2023/08/24 06:58:06;;;;;;;11.20;6.03;;;17.30;99.90;;;;;;5036702;28;20564;-72
2023/08/24 07:00:33;;;;;;;8.88;6.10;;;17.40;99.90;;;;;;5055341;28;20048;-72
2023/08/24 07:02:59;;;;;;;9.48;6.25;;;17.50;99.90;;;;;;5036168;28;20123;-73
2023/08/24 07:05:25;;;;;;;10.15;5.68;;;17.60;99.90;;;;;;5054854;28;20480;-71
2023/08/24 07:07:51;;;;;;;12.63;6.28;;;17.60;99.90;;;;;;5052966;28;20059;-71
2023/08/24 07:10:17;;;;;;;9.40;5.90;;;17.80;99.90;;;;;;5036738;28;20059;-73
2023/08/24 07:12:44;;;;;;;8.98;5.53;;;17.80;99.90;;;;;;5037184;28;20086;-72
2023/08/24 07:15:11;;;;;;;11.02;5.72;;;17.90;99.90;;;;;;5036408;28;20045;-74
2023/08/24 07:17:37;;;;;;;10.55;5.60;;;18.00;99.90;;;;;;5054289;28;20041;-73
2023/08/24 07:20:13;;;;;;;8.68;4.90;;;18.20;99.90;;;;;;5037500;28;20387;-73
2023/08/24 07:22:39;;;;;;;8.82;4.97;;;18.60;99.90;;;;;;5036704;28;20088;-73
2023/08/24 07:25:05;;;;;;;8.80;5.00;;;19.60;99.90;;;;;;5054002;28;20077;-73
2023/08/24 07:27:36;;;;;;;9.00;3.95;;;20.80;99.90;;;;;;5037425;28;20045;-74
2023/08/24 07:30:05;;;;;;;5.57;3.90;;;22.00;99.90;;;;;;5036874;28;20537;-73
2023/08/24 07:32:31;;;;;;;7.80;3.55;;;22.90;99.90;;;;;;5052879;28;20037;-72
2023/08/24 07:34:59;;;;;;;5.88;3.30;;;23.50;99.90;;;;;;5034470;28;20128;-72
2023/08/24 07:37:25;;;;;;;7.05;2.97;;;24.40;99.90;;;;;;5057699;28;20444;-72
2023/08/24 07:39:51;;;;;;;5.93;2.90;;;25.10;99.90;;;;;;5020214;28;20057;-73
2023/08/24 07:42:21;;;;;;;5.88;3.10;;;25.40;99.90;;;;;;5017595;28;20065;-72
2023/08/24 07:44:47;;;;;;;4.82;2.67;;;25.90;99.90;;;;;;5033566;28;20048;-72
2023/08/24 07:47:13;;;;;;;11.60;4.65;;;26.30;99.90;;;;;;5034061;28;20046;-73
2023/08/24 07:49:43;;;;;;;5.43;2.90;;;26.40;99.90;;;;;;5035545;28;20038;-72
2023/08/24 07:52:09;;;;;;;4.65;2.90;;;26.60;99.90;;;;;;5019691;28;20045;-73
2023/08/24 07:54:35;;;;;;;7.20;3.10;;;26.70;99.80;;;;;;5034581;28;20505;-73
2023/08/24 07:57:01;;;;;;;4.90;2.55;;;26.90;99.50;;;;;;5034354;28;20042;-74
2023/08/24 07:59:26;;;;;;;5.60;1.92;;;27.50;98.90;;;;;;5015804;28;20057;-73
2023/08/24 08:01:52;;;;;;;3.50;2.20;;;27.90;97.50;;;;;;5034157;28;20087;-73
2023/08/24 08:04:18;;;;;;;4.80;2.60;;;28.10;96.00;;;;;;5033994;28;20477;-73
2023/08/24 08:06:43;;;;;;;5.40;2.58;;;28.30;95.40;;;;;;5019765;28;20049;-73
2023/08/24 08:09:09;;;;;;;6.43;2.33;;;28.10;96.10;;;;;;5019257;28;20073;-73
2023/08/24 08:11:34;;;;;;;5.78;2.25;;;28.30;95.60;;;;;;5033670;28;20046;-74
2023/08/24 08:14:00;;;;;;;5.15;2.55;;;28.40;96.00;;;;;;5033941;28;20491;-73
2023/08/24 08:16:26;;;;;;;5.45;2.40;;;28.70;95.60;;;;;;5016594;28;20084;-71
2023/08/24 08:18:51;;;;;;;6.70;2.95;;;28.80;95.20;;;;;;5015498;28;20045;-74
2023/08/24 08:21:18;;;;;;;6.22;2.70;;;29.20;95.20;;;;;;5017353;28;20052;-73
2023/08/24 08:23:47;;;;;;;7.22;2.80;;;29.50;94.90;;;;;;5023790;28;20048;-71
2023/08/24 08:26:15;;;;;;;4.38;2.60;;;29.30;94.40;;;;;;5033323;28;20084;-75
2023/08/24 08:28:41;;;;;;;7.30;3.00;;;29.40;94.80;;;;;;5024980;28;20048;-71
2023/08/24 08:31:07;;;;;;;7.72;3.08;;;29.80;94.50;;;;;;5053140;28;20044;-72
2023/08/24 08:33:33;;;;;;;6.60;3.10;;;30.00;93.80;;;;;;5034891;28;20044;-71
2023/08/24 08:35:58;;;;;;;5.65;2.97;;;29.80;94.50;;;;;;5052587;28;20076;-73
2023/08/24 08:38:27;;;;;;;7.80;3.50;;;29.90;94.60;;;;;;5052943;28;20068;-72
2023/08/24 08:41:01;;;;;;;7.43;3.33;;;29.70;94.60;;;;;;5022595;28;20501;-71
2023/08/24 08:43:27;;;;;;;5.88;3.80;;;29.30;95.00;;;;;;5041105;28;20064;-72
2023/08/24 08:45:55;;;;;;;6.70;4.18;;;28.90;95.80;;;;;;5052745;28;20095;-71
2023/08/24 08:48:21;;;;;;;6.47;3.95;;;28.40;96.40;;;;;;5034408;28;20120;-71
2023/08/24 08:50:51;;;;;;;9.13;3.80;;;28.80;96.40;;;;;;5034785;28;20052;-70
2023/08/24 08:53:20;;;;;;;5.57;4.00;;;28.70;96.50;;;;;;5035382;28;20393;-71
2023/08/24 08:55:45;;;;;;;6.72;4.15;;;29.00;96.30;;;;;;5034434;28;20064;-72
2023/08/24 08:58:11;;;;;;;9.07;4.75;;;29.30;96.30;;;;;;5034911;28;20045;-71
2023/08/24 09:00:38;;;;;;;9.75;4.30;;;28.90;95.80;;;;;;5034212;28;20052;-72
2023/08/24 09:03:05;;;;;;;9.05;4.28;;;28.40;96.60;;;;;;5033921;28;20033;-72
2023/08/24 09:05:32;;;;;;;7.57;4.70;;;28.10;96.90;;;;;;5035030;28;20056;-73
2023/08/24 09:07:59;;;;;;;8.85;4.90;;;27.60;97.20;;;;;;5050805;28;20061;-71
2023/08/24 09:10:25;;;;;;;7.35;5.32;;;27.00;97.70;;;;;;5051110;28;20120;-72
2023/08/24 09:12:51;;;;;;;7.72;4.57;;;26.40;98.40;;;;;;5052054;28;20120;-72
2023/08/24 09:15:26;;;;;;;7.97;4.70;;;25.80;99.10;;;;;;5058198;28;20036;-72
2023/08/24 09:17:54;;;;;;;7.93;4.30;;;25.10;99.90;;;;;;5067219;28;20053;-73
2023/08/24 09:20:28;;;;;;;12.68;5.72;;;24.60;99.90;;;;;;5053877;28;20063;-72
2023/08/24 09:22:56;;;;;;;8.65;4.93;;;24.40;99.90;;;;;;5070664;28;20175;-73
2023/08/24 09:25:25;;;;;;;10.63;4.95;;;24.30;99.90;;;;;;5046864;28;20049;-75
2023/08/24 09:28:03;;;;;;;8.98;5.20;;;23.90;99.90;;;;;;5044216;28;20048;-76
2023/08/24 09:30:37;;;;;;;7.65;5.38;;;23.70;99.90;;;;;;5050611;28;20067;-76
2023/08/24 09:33:13;;;;;;;8.32;5.55;;;23.50;99.90;;;;;;5047055;28;20400;-76
2023/08/24 09:35:38;;;;;;;8.40;4.95;;;23.30;99.90;;;;;;5031581;28;20052;-74
2023/08/24 09:38:21;;;;;;;9.07;5.40;;;23.10;99.90;;;;;;5062858;28;20048;-74
2023/08/24 09:40:51;;;;;;;10.73;5.53;;;22.90;99.90;;;;;;5040676;28;20056;-74
2023/08/24 09:43:16;;;;;;;8.73;5.63;;;22.60;99.90;;;;;;5017013;28;20086;-74
2023/08/24 09:45:55;;;;;;;7.18;5.40;;;22.50;99.90;;;;;;5018660;28;20042;-74
2023/08/24 09:48:21;;;;;;;9.57;5.68;;;22.30;99.90;;;;;;5039394;28;20045;-74
2023/08/24 09:50:51;;;;;;;7.82;5.03;;;22.20;99.90;;;;;;5042988;28;20074;-74
2023/08/24 09:53:22;;;;;;;9.05;5.40;;;22.00;99.90;;;;;;5066020;28;20070;-73
2023/08/24 09:56:05;;;;;;;9.60;5.60;;;21.90;99.90;;;;;;5066917;28;20065;-75
2023/08/24 09:58:31;;;;;;;10.15;5.95;;;21.70;99.90;;;;;;5028277;28;20053;-74
2023/08/24 10:00:57;;;;;;;10.63;6.03;;;21.60;99.90;;;;;;5015413;28;20044;-77
2023/08/24 10:03:27;;;;;;;10.27;6.25;;;21.60;99.90;;;;;;5032368;28;20055;-75
2023/08/24 10:05:55;;;;;;;11.43;6.10;;;21.40;99.90;;;;;;5013902;28;20046;-75
2023/08/24 10:08:25;;;;;;;9.93;6.63;;;21.30;99.90;;;;;;5020217;28;20049;-75
2023/08/24 10:10:55;;;;;;;9.90;6.35;;;21.20;99.90;;;;;;5021039;28;20065;-75
2023/08/24 10:13:45;;;;;;;11.35;6.70;;;21.10;99.90;;;;;;5048545;28;20402;-75
2023/08/24 10:16:13;;;;;;;9.48;6.78;;;21.10;99.90;;;;;;5041493;28;20049;-75
2023/08/24 10:18:40;;;;;;;11.40;6.28;;;20.90;99.90;;;;;;5050412;28;20044;-76
2023/08/24 10:21:07;;;;;;;9.82;6.43;;;20.90;99.90;;;;;;5063618;28;20041;-73
2023/08/24 10:23:35;;;;;;;9.07;6.50;;;20.80;99.90;;;;;;5053329;28;20036;-73
2023/08/24 10:26:03;;;;;;;8.95;6.43;;;20.80;99.90;;;;;;5062629;28;20087;-74
2023/08/24 10:28:29;;;;;;;9.63;6.57;;;20.70;99.90;;;;;;5049154;28;20051;-74
2023/08/24 10:30:58;;;;;;;9.20;6.40;;;20.70;99.90;;;;;;5070877;28;20040;-73
2023/08/24 10:33:29;;;;;;;10.05;6.32;;;20.70;99.90;;;;;;5052219;28;20033;-73
2023/08/24 10:35:55;;;;;;;10.40;6.68;;;20.60;99.90;;;;;;5046103;28;20563;-72
2023/08/24 10:38:25;;;;;;;9.38;6.60;;;20.60;99.90;;;;;;5047819;28;20167;-73
2023/08/24 10:40:51;;;;;;;10.95;6.50;;;20.60;99.90;;;;;;5052089;28;20542;-71
2023/08/24 10:43:20;;;;;;;9.98;6.75;;;20.50;99.90;;;;;;5052875;28;20127;-73
2023/08/24 10:46:03;;;;;;;10.30;7.13;;;20.50;99.90;;;;;;5046875;28;20081;-72
2023/08/24 10:48:30;;;;;;;9.25;6.88;;;20.40;99.90;;;;;;5037523;28;20049;-72
2023/08/24 10:51:22;;;;;;;17.08;7.43;;;20.40;99.90;;;;;;5052227;28;20037;-74
2023/08/24 10:53:54;;;;;;;16.15;8.30;;;20.30;99.90;;;;;;5049602;28;20083;-71
2023/08/24 10:56:20;;;;;;;13.20;8.25;;;20.30;99.90;;;;;;5043255;28;20059;-71
2023/08/24 10:58:47;;;;;;;13.70;7.90;;;20.20;99.90;;;;;;5069517;28;20407;-73
2023/08/24 11:01:17;;;;;;;10.55;7.50;;;20.20;99.90;;;;;;5073641;28;20111;-72
2023/08/24 11:03:49;;;;;;;11.75;8.13;;;20.20;99.90;;;;;;5056372;28;20048;-72
2023/08/24 11:06:22;;;;;;;13.38;8.15;;;20.20;99.90;;;;;;5065319;28;20400;-72
2023/08/24 11:08:49;;;;;;;17.45;8.65;;;20.10;99.90;;;;;;5053363;28;20095;-73
2023/08/24 11:11:25;;;;;;;12.63;8.35;;;20.20;99.90;;;;;;5056293;28;20076;-72
2023/08/24 11:14:17;;;;;;;13.35;9.18;;;20.20;99.90;;;;;;5073285;28;20049;-71
2023/08/24 11:16:47;;;;;;;15.07;9.13;;;20.00;99.90;;;;;;5045302;28;20057;-72
2023/08/24 11:19:14;;;;;;;15.10;9.32;;;20.00;99.90;;;;;;5074167;28;20083;-72
2023/08/24 11:21:41;;;;;;;18.60;10.00;;;19.90;99.90;;;;;;5073439;28;20056;-71
2023/08/24 11:24:13;;;;;;;13.82;9.68;;;20.00;99.90;;;;;;5071637;28;20399;-73
2023/08/24 11:26:47;;;;;;;16.52;9.60;;;20.10;99.90;;;;;;5050035;28;20041;-73
2023/08/24 11:29:13;;;;;;;15.18;9.40;;;20.00;99.90;;;;;;5073407;28;20053;-72
2023/08/24 11:31:39;;;;;;;14.18;9.50;;;20.00;99.90;;;;;;5055821;28;20044;-72
2023/08/24 11:34:07;;;;;;;15.10;9.60;;;20.00;99.90;;;;;;5053730;28;20297;-72
2023/08/24 11:36:46;;;;;;;12.98;10.27;;;19.90;99.90;;;;;;5053203;28;20045;-73
2023/08/24 11:39:17;;;;;;;16.20;10.20;;;20.00;99.90;;;;;;5051908;28;20120;-73
2023/08/24 11:41:44;;;;;;;15.27;10.30;;;19.90;99.90;;;;;;5055595;28;20491;-72
2023/08/24 11:44:10;;;;;;;14.48;9.27;;;19.90;99.90;;;;;;5051966;28;20132;-72
2023/08/24 11:46:39;;;;;;;17.05;9.88;;;19.90;99.90;;;;;;5043763;28;20141;-71
2023/08/24 11:49:06;;;;;;;15.23;10.25;;;19.90;99.90;;;;;;5054770;28;20037;-71
2023/08/24 11:51:34;;;;;;;13.60;10.35;;;19.90;99.90;;;;;;5054974;28;20044;-72
2023/08/24 11:53:59;;;;;;;15.02;10.00;;;19.80;99.90;;;;;;5054423;28;20076;-72
2023/08/24 11:56:25;;;;;;;14.45;10.75;;;19.80;99.90;;;;;;5035432;28;20071;-71
2023/08/24 11:58:51;;;;;;;17.30;10.45;;;19.80;99.90;;;;;;5035999;28;20128;-71
2023/08/24 12:01:17;;;;;;;15.88;11.38;;;19.80;99.90;;;;;;5034817;28;21773;-72
2023/08/24 12:03:43;;;;;;;14.27;10.57;;;19.80;99.90;;;;;;5036374;28;20050;-72
2023/08/24 12:06:14;;;;;;;14.35;10.18;;;19.80;99.90;;;;;;5019812;28;20107;-72
2023/08/24 12:08:41;;;;;;;15.27;10.90;;;19.90;99.90;;;;;;5022463;28;20054;-72
2023/08/24 12:11:16;;;;;;;18.25;10.95;;;19.90;99.90;;;;;;5068011;28;20496;-72
2023/08/24 12:13:45;;;;;;;16.52;11.00;;;20.00;99.90;;;;;;5035679;28;20084;-73
2023/08/24 12:16:12;;;;;;;12.98;10.77;;;20.00;99.90;;;;;;5053215;28;20079;-72
2023/08/24 12:19:02;;;;;;;19.42;11.38;;;20.00;99.90;;;;;;5035354;28;20056;-73
2023/08/24 12:21:29;;;;;;;17.92;11.23;;;19.90;99.90;;;;;;5053959;28;20041;-73
2023/08/24 12:23:58;;;;;;;17.45;11.38;;;20.00;99.90;;;;;;5053375;28;20082;-73
2023/08/24 12:26:24;;;;;;;14.80;10.98;;;20.00;99.90;;;;;;5052797;28;20037;-73
2023/08/24 12:28:51;;;;;;;16.55;12.05;;;20.00;99.90;;;;;;5053562;28;20047;-74
2023/08/24 12:31:18;;;;;;;16.40;11.20;;;19.80;99.90;;;;;;5036070;28;20049;-74
2023/08/24 12:33:57;;;;;;;20.38;11.85;;;19.80;99.90;;;;;;5034545;28;20056;-74
2023/08/24 12:36:23;;;;;;;17.13;12.35;;;19.90;99.90;;;;;;5053561;28;20413;-76
2023/08/24 12:38:49;;;;;;;24.15;13.07;;;20.00;99.90;;;;;;5035090;28;20037;-76
2023/08/24 12:41:14;;;;;;;19.10;12.88;;;19.90;99.90;;;;;;5034991;28;20041;-74